Terminal Aerodrome Forecast
Issued by NWS Cleveland, OH

Home | Current Version | Previous Version | Text Only | Print | Product List | Glossary On
Versions: 1 2 3 4 5 6 7 8 9 10 11 12 13 14 15 16 17 18 19 20 21 22 23
000
FTUS41 KCLE 270300 AAC
TAFERI
TAF AMD
KERI 270342Z 2704/2724 24005KT P6SM SCT005 OVC035
      TEMPO 2704/2706 5SM BR BKN004
     FM270800 29007KT P6SM VCSH SCT010 OVC015
     FM271600 30008KT 6SM -SHSN SCT015 OVC022
     FM271900 31010KT 4SM -SHSN BKN015=

USA.gov is the U.S. government's official web portal to all federal, state and local government web resources and services.